createdAt,value
2022-09-28T00:01:02.112Z,9.12
2022-09-28T00:04:10.043Z,9.12
2022-09-28T00:07:17.703Z,9.10
2022-09-28T00:10:24.963Z,9.12
2022-09-28T00:13:33.002Z,9.12
2022-09-28T00:16:40.619Z,9.12
2022-09-28T00:19:48.168Z,9.09
2022-09-28T00:22:56.213Z,9.09
2022-09-28T00:26:03.417Z,9.02
2022-09-28T00:29:11.202Z,8.99
2022-09-28T00:32:18.681Z,8.93
2022-09-28T00:35:25.829Z,8.83
2022-09-28T00:38:33.639Z,8.73
2022-09-28T00:41:41.238Z,8.69
2022-09-28T00:44:48.467Z,8.68
2022-09-28T00:47:56.411Z,8.68
2022-09-28T00:51:03.593Z,8.69
2022-09-28T00:54:12.821Z,8.65
2022-09-28T00:57:21.213Z,8.60
2022-09-28T01:00:28.586Z,8.53
2022-09-28T01:03:36.784Z,8.47
2022-09-28T01:06:43.926Z,8.44
2022-09-28T01:09:52.098Z,8.42
2022-09-28T01:12:59.736Z,8.42
2022-09-28T01:16:07.394Z,8.35
2022-09-28T01:19:15.076Z,8.26
2022-09-28T01:22:23.366Z,8.20
2022-09-28T01:25:30.648Z,8.11
2022-09-28T01:28:38.648Z,8.02
2022-09-28T01:31:46.687Z,7.89
2022-09-28T01:34:53.909Z,7.74
2022-09-28T01:38:01.542Z,7.62
2022-09-28T01:41:09.041Z,7.50
2022-09-28T01:44:16.672Z,7.42
2022-09-28T01:47:24.579Z,7.38
2022-09-28T01:50:32.062Z,7.35
2022-09-28T01:53:39.553Z,7.31
2022-09-28T01:56:47.484Z,7.20
2022-09-28T01:59:54.933Z,7.08
2022-09-28T02:03:02.674Z,7.05
2022-09-28T02:06:10.335Z,7.04
2022-09-28T02:09:18.214Z,7.04
2022-09-28T02:12:25.406Z,7.13
2022-09-28T02:15:33.075Z,7.23
2022-09-28T02:18:41.148Z,7.34
2022-09-28T02:21:48.767Z,7.41
2022-09-28T02:24:56.268Z,7.37
2022-09-28T02:28:03.839Z,7.31
2022-09-28T02:31:11.361Z,7.34
2022-09-28T02:34:19.390Z,7.42
2022-09-28T02:37:27.320Z,7.52
2022-09-28T02:40:34.511Z,7.60
2022-09-28T02:43:42.471Z,7.67
2022-09-28T02:46:50.312Z,7.75
2022-09-28T02:49:57.943Z,7.82
2022-09-28T02:53:05.844Z,7.92
2022-09-28T02:56:13.204Z,7.92
2022-09-28T02:59:21.314Z,7.92
2022-09-28T03:02:29.399Z,7.93
2022-09-28T03:05:36.594Z,7.90
2022-09-28T03:08:44.465Z,7.90
2022-09-28T03:11:51.907Z,7.93
2022-09-28T03:14:59.418Z,7.90
2022-09-28T03:18:07.458Z,7.92
2022-09-28T03:21:15.017Z,7.93
2022-09-28T03:24:22.571Z,7.94
2022-09-28T03:27:30.409Z,7.94
2022-09-28T03:30:37.622Z,8.00
2022-09-28T03:33:45.448Z,8.02
2022-09-28T03:36:52.957Z,8.07
2022-09-28T03:40:00.571Z,8.04
2022-09-28T03:43:08.569Z,8.04
2022-09-28T03:46:16.266Z,8.07
2022-09-28T03:49:23.824Z,8.02
2022-09-28T03:52:31.823Z,7.99
2022-09-28T03:55:39.824Z,7.96
2022-09-28T03:58:47.574Z,7.96
2022-09-28T04:01:55.700Z,7.99
2022-09-28T04:05:02.917Z,8.00
2022-09-28T04:08:10.734Z,8.02
2022-09-28T04:11:18.457Z,8.03
2022-09-28T04:14:26.105Z,8.11
2022-09-28T04:17:39.211Z,8.11
2022-09-28T04:20:36.799Z,8.14
2022-09-28T04:23:44.489Z,8.15
2022-09-28T04:26:52.129Z,8.17
2022-09-28T04:30:00.145Z,8.17
2022-09-28T04:33:07.845Z,8.21
2022-09-28T04:36:15.453Z,8.21
2022-09-28T04:39:23.443Z,8.22
2022-09-28T04:42:30.962Z,8.25
2022-09-28T04:45:38.504Z,8.26
2022-09-28T04:48:46.181Z,8.26
2022-09-28T04:51:53.370Z,8.22
2022-09-28T04:55:01.342Z,8.25
2022-09-28T04:58:09.216Z,8.28
2022-09-28T05:01:16.438Z,8.28
2022-09-28T05:04:26.170Z,8.25
2022-09-28T05:07:34.464Z,8.22
2022-09-28T05:10:41.669Z,8.28
2022-09-28T05:13:49.602Z,8.21
2022-09-28T05:16:57.211Z,8.20
2022-09-28T05:20:04.902Z,8.25
2022-09-28T05:23:12.939Z,8.26
2022-09-28T05:26:20.551Z,8.26
2022-09-28T05:29:32.055Z,8.22
2022-09-28T05:32:29.872Z,8.22
2022-09-28T05:35:37.824Z,8.21
2022-09-28T05:38:45.712Z,8.21
2022-09-28T05:41:53.553Z,8.22
2022-09-28T05:45:01.803Z,8.22
2022-09-28T05:48:09.724Z,8.21
2022-09-28T05:51:17.655Z,8.28
2022-09-28T05:54:25.485Z,8.28
2022-09-28T05:57:33.374Z,8.26
2022-09-28T06:00:41.256Z,8.28
2022-09-28T06:03:49.066Z,8.28
2022-09-28T06:06:56.967Z,8.29
2022-09-28T06:10:04.668Z,8.29
2022-09-28T06:13:13.477Z,8.28
2022-09-28T06:16:20.951Z,8.28
2022-09-28T06:19:29.225Z,8.26
2022-09-28T06:22:37.271Z,8.25
2022-09-28T06:25:44.741Z,8.28
2022-09-28T06:28:53.013Z,8.28
2022-09-28T06:32:00.920Z,8.29
2022-09-28T06:35:08.314Z,8.28
2022-09-28T06:38:16.301Z,8.30
2022-09-28T06:41:24.175Z,8.32
2022-09-28T06:44:31.755Z,8.33
2022-09-28T06:47:40.029Z,8.39
2022-09-28T06:50:47.445Z,8.36
2022-09-28T06:53:55.626Z,8.45
2022-09-28T06:57:03.877Z,8.58
2022-09-28T07:00:11.295Z,8.66
2022-09-28T07:03:19.568Z,8.75
2022-09-28T07:06:27.929Z,8.83
2022-09-28T07:09:41.427Z,8.91
2022-09-28T07:12:40.469Z,9.01
2022-09-28T07:15:48.568Z,9.10
2022-09-28T07:18:56.071Z,9.16
2022-09-28T07:22:05.643Z,9.23
2022-09-28T07:25:13.632Z,9.35
2022-09-28T07:28:21.526Z,9.49
2022-09-28T07:31:29.525Z,9.48
2022-09-28T07:34:37.244Z,9.50
2022-09-28T07:37:44.791Z,9.61
2022-09-28T07:40:52.500Z,9.78
2022-09-28T07:44:00.616Z,9.89
2022-09-28T07:47:08.339Z,9.93
2022-09-28T07:50:15.856Z,9.97
2022-09-28T07:53:23.727Z,9.97
2022-09-28T07:56:31.567Z,10.01
2022-09-28T07:59:39.150Z,9.97
2022-09-28T08:02:46.750Z,9.89
2022-09-28T08:05:54.439Z,9.94
2022-09-28T08:09:01.920Z,10.01
2022-09-28T08:12:09.495Z,10.07
2022-09-28T08:15:17.022Z,10.10
2022-09-28T08:18:25.031Z,10.15
2022-09-28T08:21:32.541Z,10.12
2022-09-28T08:24:40.124Z,10.12
2022-09-28T08:27:47.957Z,10.09
2022-09-28T08:30:55.275Z,10.14
2022-09-28T08:34:03.196Z,10.06
2022-09-28T08:37:10.715Z,10.01
2022-09-28T08:40:17.944Z,10.04
2022-09-28T08:43:25.888Z,10.09
2022-09-28T08:46:33.660Z,10.07
2022-09-28T08:49:41.304Z,10.06
2022-09-28T08:52:49.301Z,10.07
2022-09-28T08:55:56.628Z,10.07
2022-09-28T08:59:04.743Z,10.15
2022-09-28T09:02:12.701Z,10.22
2022-09-28T09:05:19.930Z,10.30
2022-09-28T09:08:27.934Z,10.30
2022-09-28T09:11:35.636Z,10.42
2022-09-28T09:14:43.335Z,10.53
2022-09-28T09:17:51.086Z,10.59
2022-09-28T09:20:58.606Z,10.68
2022-09-28T09:24:06.169Z,10.76
2022-09-28T09:27:14.028Z,10.71
2022-09-28T09:30:21.782Z,10.68
2022-09-28T09:33:29.397Z,10.63
2022-09-28T09:36:37.440Z,10.58
2022-09-28T09:39:45.041Z,10.46
2022-09-28T09:42:52.601Z,10.44
2022-09-28T09:46:00.381Z,10.44
2022-09-28T09:49:08.489Z,10.43
2022-09-28T09:52:16.043Z,10.40
2022-09-28T09:55:29.007Z,10.44
2022-09-28T09:58:26.804Z,10.52
2022-09-28T10:01:34.126Z,10.51
2022-09-28T10:04:42.076Z,10.51
2022-09-28T10:07:49.567Z,10.55
2022-09-28T10:10:57.024Z,10.56
2022-09-28T10:14:04.786Z,10.60
2022-09-28T10:17:12.489Z,10.58
2022-09-28T10:20:20.116Z,10.60
2022-09-28T10:23:28.162Z,10.65
2022-09-28T10:26:35.781Z,10.65
2022-09-28T10:29:43.560Z,10.63
2022-09-28T10:32:51.912Z,10.63
2022-09-28T10:35:59.423Z,10.65
2022-09-28T10:39:07.704Z,10.68
2022-09-28T10:42:15.696Z,10.74
2022-09-28T10:45:23.698Z,10.84
2022-09-28T10:48:32.162Z,10.89
2022-09-28T10:51:39.497Z,10.95
2022-09-28T10:54:47.677Z,10.99
2022-09-28T10:57:55.889Z,10.92
2022-09-28T11:01:03.442Z,10.91
2022-09-28T11:04:11.935Z,10.83
2022-09-28T11:07:20.187Z,10.84
2022-09-28T11:10:27.567Z,10.65
2022-09-28T11:13:35.733Z,10.39
2022-09-28T11:16:43.375Z,10.14
2022-09-28T11:19:50.933Z,10.18
2022-09-28T11:22:59.032Z,10.36
2022-09-28T11:26:06.558Z,10.34
2022-09-28T11:29:14.093Z,10.44
2022-09-28T11:32:22.096Z,10.62
2022-09-28T11:35:29.331Z,10.65
2022-09-28T11:38:37.269Z,10.81
2022-09-28T11:41:45.228Z,11.07
2022-09-28T11:44:53.118Z,11.29
2022-09-28T11:48:01.529Z,11.41
2022-09-28T11:51:09.242Z,11.52
2022-09-28T11:54:17.099Z,11.70
2022-09-28T11:57:24.953Z,11.74
2022-09-28T12:00:32.932Z,11.80
2022-09-28T12:03:41.117Z,11.89
2022-09-28T12:06:48.964Z,12.11
2022-09-28T12:09:56.954Z,12.24
2022-09-28T12:13:04.760Z,11.99
2022-09-28T12:16:53.495Z,12.04
2022-09-28T12:19:17.719Z,12.11
2022-09-28T12:22:25.789Z,12.02
2022-09-28T12:25:33.466Z,11.85
2022-09-28T12:28:41.937Z,12.02
2022-09-28T12:31:49.408Z,12.21
2022-09-28T12:34:57.533Z,12.04
2022-09-28T12:38:05.302Z,11.96
2022-09-28T12:41:12.824Z,11.86
2022-09-28T12:44:21.215Z,11.83
2022-09-28T12:47:28.674Z,11.94
2022-09-28T12:50:39.072Z,11.89
2022-09-28T12:53:38.137Z,11.62
2022-09-28T12:56:45.697Z,11.31
2022-09-28T12:59:53.897Z,11.25
2022-09-28T13:03:02.255Z,11.16
2022-09-28T13:06:09.790Z,11.01
2022-09-28T13:09:18.228Z,10.84
2022-09-28T13:12:26.008Z,10.81
2022-09-28T13:15:33.951Z,10.70
2022-09-28T13:18:42.160Z,10.78
2022-09-28T13:21:49.746Z,10.66
2022-09-28T13:24:57.310Z,10.81
2022-09-28T13:28:05.457Z,11.02
2022-09-28T13:31:12.708Z,11.24
2022-09-28T13:34:20.815Z,11.57
2022-09-28T13:37:28.437Z,11.83
2022-09-28T13:40:36.135Z,12.12
2022-09-28T13:43:43.748Z,12.20
2022-09-28T13:46:51.438Z,12.29
2022-09-28T13:49:59.206Z,12.38
2022-09-28T13:53:06.820Z,12.31
2022-09-28T13:56:14.311Z,12.34
2022-09-28T13:59:21.752Z,12.20
2022-09-28T14:02:29.551Z,11.99
2022-09-28T14:05:37.943Z,12.04
2022-09-28T14:08:45.824Z,11.99
2022-09-28T14:11:53.555Z,11.93
2022-09-28T14:15:01.842Z,11.82
2022-09-28T14:18:09.296Z,11.83
2022-09-28T14:21:17.698Z,11.77
2022-09-28T14:24:26.127Z,11.83
2022-09-28T14:27:33.546Z,11.80
2022-09-28T14:30:41.981Z,11.77
2022-09-28T14:33:50.111Z,11.78
2022-09-28T14:36:57.494Z,11.68
2022-09-28T14:40:05.646Z,11.65
2022-09-28T14:43:13.484Z,11.49
2022-09-28T14:44:07.904Z,11.47
2022-09-28T14:47:15.172Z,11.46
2022-09-28T14:50:23.533Z,11.29
2022-09-28T14:53:31.736Z,11.25
2022-09-28T14:56:39.343Z,11.03
2022-09-28T14:59:47.568Z,11.02
2022-09-28T15:02:55.155Z,10.94
2022-09-28T15:06:02.973Z,11.02
2022-09-28T15:09:10.609Z,11.02
2022-09-28T15:12:18.478Z,11.06
2022-09-28T15:15:25.908Z,10.96
2022-09-28T15:18:34.523Z,10.91
2022-09-28T15:21:42.400Z,10.94
2022-09-28T15:24:50.362Z,10.92
2022-09-28T15:27:57.901Z,10.89
2022-09-28T15:31:06.347Z,10.92
2022-09-28T15:34:14.380Z,10.95
2022-09-28T15:37:22.345Z,10.96
2022-09-28T15:40:30.773Z,10.92
2022-09-28T15:43:38.213Z,10.94
2022-09-28T15:46:46.356Z,10.84
2022-09-28T15:49:54.356Z,10.73
2022-09-28T15:53:01.817Z,10.63
2022-09-28T15:56:10.242Z,10.52
2022-09-28T15:59:18.278Z,10.40
2022-09-28T16:02:25.911Z,10.34
2022-09-28T16:05:34.139Z,10.19
2022-09-28T16:08:41.433Z,10.06
2022-09-28T16:11:49.792Z,9.97
2022-09-28T16:14:57.703Z,9.88
2022-09-28T16:18:04.870Z,9.81
2022-09-28T16:21:12.873Z,9.78
2022-09-28T16:24:20.571Z,9.76
2022-09-28T16:27:28.066Z,9.76
2022-09-28T16:30:36.575Z,9.76
2022-09-28T16:33:44.426Z,9.75
2022-09-28T16:36:52.150Z,9.79
2022-09-28T16:40:00.340Z,9.85
2022-09-28T16:43:07.733Z,9.83
2022-09-28T16:46:15.406Z,9.82
2022-09-28T16:49:23.000Z,9.81
2022-09-28T16:52:30.280Z,9.81
2022-09-28T16:55:40.829Z,9.79
2022-09-28T16:58:37.852Z,9.83
2022-09-28T17:01:46.142Z,9.83
2022-09-28T17:04:54.002Z,9.78
2022-09-28T17:08:01.284Z,9.79
2022-09-28T17:11:15.902Z,9.78
2022-09-28T17:14:14.644Z,9.76
2022-09-28T17:17:22.476Z,9.78
2022-09-28T17:20:30.616Z,9.76
2022-09-28T17:23:38.459Z,9.71
2022-09-28T17:26:46.209Z,9.70
2022-09-28T17:29:54.480Z,9.73
2022-09-28T17:33:01.738Z,9.75
2022-09-28T17:36:09.387Z,9.75
2022-09-28T17:39:16.556Z,9.79
2022-09-28T17:42:25.680Z,9.78
2022-09-28T17:45:33.364Z,9.78
2022-09-28T17:48:41.548Z,9.73
2022-09-28T17:51:49.501Z,9.71
2022-09-28T17:54:57.744Z,9.73
2022-09-28T17:58:04.983Z,9.70
2022-09-28T18:01:13.873Z,9.66
2022-09-28T18:04:33.189Z,9.67
2022-09-28T18:07:18.795Z,9.67
2022-09-28T18:10:26.844Z,9.68
2022-09-28T18:13:34.567Z,9.68
2022-09-28T18:16:42.258Z,9.68
2022-09-28T18:19:50.356Z,9.66
2022-09-28T18:22:58.139Z,9.67
2022-09-28T18:26:06.027Z,9.63
2022-09-28T18:29:13.360Z,9.58
2022-09-28T18:32:21.681Z,9.56
2022-09-28T18:35:29.181Z,9.57
2022-09-28T18:38:36.871Z,9.57
2022-09-28T18:41:44.582Z,9.50
2022-09-28T18:44:52.576Z,9.46
2022-09-28T18:48:00.213Z,9.53
2022-09-28T18:51:07.813Z,9.60
2022-09-28T18:54:15.215Z,9.61
2022-09-28T18:57:23.136Z,9.63
2022-09-28T19:00:30.605Z,9.61
2022-09-28T19:03:38.254Z,9.61
2022-09-28T19:06:46.288Z,9.66
2022-09-28T19:09:53.969Z,9.67
2022-09-28T19:13:01.663Z,9.63
2022-09-28T19:16:09.850Z,9.63
2022-09-28T19:19:17.190Z,9.63
2022-09-28T19:22:25.520Z,9.61
2022-09-28T19:25:33.661Z,9.63
2022-09-28T19:28:40.882Z,9.61
2022-09-28T19:31:49.022Z,9.56
2022-09-28T19:34:57.223Z,9.48
2022-09-28T19:38:05.055Z,9.49
2022-09-28T19:41:13.358Z,9.49
2022-09-28T19:44:21.496Z,9.46
2022-09-28T19:47:29.015Z,9.39
2022-09-28T19:50:37.426Z,9.34
2022-09-28T19:53:44.587Z,9.35
2022-09-28T19:56:52.627Z,9.39
2022-09-28T20:00:02.717Z,9.43
2022-09-28T20:03:10.550Z,9.43
2022-09-28T20:06:18.424Z,9.46
2022-09-28T20:09:25.990Z,9.45
2022-09-28T20:12:33.650Z,9.46
2022-09-28T20:15:41.662Z,9.46
2022-09-28T20:18:49.232Z,9.48
2022-09-28T20:21:57.084Z,9.49
2022-09-28T20:25:05.214Z,9.49
2022-09-28T20:28:12.894Z,9.45
2022-09-28T20:31:20.873Z,9.46
2022-09-28T20:34:28.678Z,9.46
2022-09-28T20:37:36.836Z,9.48
2022-09-28T20:40:44.781Z,9.49
2022-09-28T20:43:52.597Z,9.52
2022-09-28T20:47:00.778Z,9.40
2022-09-28T20:50:08.569Z,9.30
2022-09-28T20:53:16.279Z,9.25
2022-09-28T20:56:24.200Z,9.16
2022-09-28T20:59:32.031Z,9.12
2022-09-28T21:02:39.747Z,9.12
2022-09-28T21:05:48.089Z,9.15
2022-09-28T21:08:55.435Z,9.21
2022-09-28T21:12:03.674Z,9.27
2022-09-28T21:15:12.022Z,9.30
2022-09-28T21:18:19.527Z,9.27
2022-09-28T21:21:27.815Z,9.27
2022-09-28T21:24:36.015Z,9.30
2022-09-28T21:27:43.394Z,9.30
2022-09-28T21:30:51.644Z,9.32
2022-09-28T21:33:59.248Z,9.34
2022-09-28T21:37:06.389Z,9.35
2022-09-28T21:40:14.128Z,9.34
2022-09-28T21:43:21.609Z,9.30
2022-09-28T21:46:29.240Z,9.32
2022-09-28T21:49:37.409Z,9.27
2022-09-28T21:52:44.571Z,9.21
2022-09-28T21:55:52.441Z,9.21
2022-09-28T21:59:00.213Z,9.21
2022-09-28T22:02:07.363Z,9.16
2022-09-28T22:05:15.333Z,9.18
2022-09-28T22:08:22.980Z,9.13
2022-09-28T22:11:30.505Z,9.05
2022-09-28T22:14:38.344Z,8.97
2022-09-28T22:17:45.936Z,8.99
2022-09-28T22:20:53.675Z,8.97
2022-09-28T22:24:01.419Z,8.87
2022-09-28T22:27:09.157Z,8.76
2022-09-28T22:30:16.688Z,8.71
2022-09-28T22:33:23.797Z,8.66
2022-09-28T22:36:31.527Z,8.63
2022-09-28T22:39:39.110Z,8.66
2022-09-28T22:42:46.361Z,8.69
2022-09-28T22:45:57.554Z,8.69
2022-09-28T22:48:56.125Z,8.66
2022-09-28T22:52:03.369Z,8.63
2022-09-28T22:55:11.243Z,8.54
2022-09-28T22:58:18.464Z,8.39
2022-09-28T23:01:26.277Z,8.29
2022-09-28T23:04:34.096Z,8.21
2022-09-28T23:07:41.187Z,8.18
2022-09-28T23:10:48.937Z,8.11
2022-09-28T23:13:57.067Z,8.07
2022-09-28T23:17:04.296Z,8.07
2022-09-28T23:20:12.531Z,8.07
2022-09-28T23:23:19.699Z,8.04
2022-09-28T23:26:27.830Z,8.02
2022-09-28T23:29:36.041Z,8.02
2022-09-28T23:32:43.241Z,7.97
2022-09-28T23:35:51.081Z,7.96
2022-09-28T23:38:59.177Z,7.94
2022-09-28T23:42:06.322Z,7.93
2022-09-28T23:45:14.154Z,7.92
2022-09-28T23:48:22.045Z,7.93
2022-09-28T23:51:29.195Z,7.94
2022-09-28T23:54:37.135Z,7.93
2022-09-28T23:57:44.547Z,7.92
